Skip Navigation LinksHome page > Tools > METAR decoder Skip Navigation Links

METAR decoder

Settings

METAR

Chicago O'Hare Intl, Chicago

For information only: do not use for flight planning or navigation.
Latest weather
Observation time Sunday, August 1, 2021 3:51 AM CDT
Local time Sunday, August 1, 2021 4:50 AM CDT
Flight conditions Visual Meteorological Conditions
Winds
Wind direction North-Northwest (330°)
Wind speed 6 mph
Visibility 8 mi.
Sky condition
Ceiling unlimited
Cloud layer few clouds 5,000 ft.
Temperature 67°F
Dewpoint 62°F
Altimeter 29.94 in.Hg
Pressure change last 3 hours-0.01 in.Hg
Pressure rising more quickly
Derived measurements
Relative humidity 84%
Density altitude 1423 ft.
Sea-level pressure 29.92 in.Hg
Remarks
Automated weather observing station with precipitation discriminator.
METAR KORD 010851Z 33005KT 8SM FEW050 19/17 A2994 RMK AO2 SLP133 T01940167 53005

InnerDrive.Weather 4.0.6770.0 Release CLR 4.0.30319.42000
Copyright ©2018 Inner Drive Technology. All rights reserved. Portions Copyright ©1986-2018 David Braverman.

Find weather

Site navigation


Skip Navigation Links

Place info

Page info

PayPal - The safer, easier way to pay online!

Return home.

Copyright ©2021 Inner Drive Technology. Purveyors of fine, hand-crafted computer software. Page printed 2021-08-01T09:50:30 UTC.